createdAt,value
2023-04-21T00:00:42.414Z,6.40
2023-04-21T00:01:42.435Z,6.40
2023-04-21T00:02:42.505Z,6.40
2023-04-21T00:03:42.535Z,6.41
2023-04-21T00:04:42.620Z,6.41
2023-04-21T00:05:42.533Z,6.42
2023-04-21T00:06:42.334Z,6.42
2023-04-21T00:07:42.296Z,6.43
2023-04-21T00:08:42.313Z,6.43
2023-04-21T00:09:42.566Z,6.44
2023-04-21T00:10:42.576Z,6.44
2023-04-21T00:11:42.544Z,6.45
2023-04-21T00:12:42.611Z,6.45
2023-04-21T00:13:42.227Z,6.45
2023-04-21T00:14:42.257Z,6.46
2023-04-21T00:15:42.289Z,6.46
2023-04-21T00:16:42.221Z,6.46
2023-04-21T00:17:42.223Z,6.46
2023-04-21T00:18:42.169Z,6.46
2023-04-21T00:19:42.251Z,6.46
2023-04-21T00:20:42.241Z,6.46
2023-04-21T00:21:42.148Z,6.47
2023-04-21T00:22:42.115Z,6.47
2023-04-21T00:23:42.516Z,6.47
2023-04-21T00:24:42.090Z,6.48
2023-04-21T00:25:42.100Z,6.48
2023-04-21T00:26:42.176Z,6.47
2023-04-21T00:27:42.052Z,6.45
2023-04-21T00:28:42.045Z,6.44
2023-04-21T00:29:42.188Z,6.44
2023-04-21T00:30:42.025Z,6.43
2023-04-21T00:31:42.067Z,6.43
2023-04-21T00:32:42.047Z,6.43
2023-04-21T00:33:41.996Z,6.42
2023-04-21T00:34:42.195Z,6.42
2023-04-21T00:35:41.963Z,6.42
2023-04-21T00:36:42.186Z,6.42
2023-04-21T00:37:41.975Z,6.42
2023-04-21T00:38:41.921Z,6.42
2023-04-21T00:39:41.934Z,6.42
2023-04-21T00:40:41.909Z,6.42
2023-04-21T00:41:41.900Z,6.42
2023-04-21T00:42:42.200Z,6.42
2023-04-21T00:43:41.876Z,6.43
2023-04-21T00:44:41.856Z,6.43
2023-04-21T00:45:42.197Z,6.44
2023-04-21T00:46:41.945Z,6.44
2023-04-21T00:47:41.902Z,6.44
2023-04-21T00:48:42.191Z,6.44
2023-04-21T00:49:41.816Z,6.45
2023-04-21T00:50:41.779Z,6.45
2023-04-21T00:51:41.786Z,6.46
2023-04-21T00:52:41.775Z,6.46
2023-04-21T00:53:41.914Z,6.46
2023-04-21T00:54:41.741Z,6.46
2023-04-21T00:55:41.744Z,6.47
2023-04-21T00:56:41.710Z,6.48
2023-04-21T00:57:42.105Z,6.48
2023-04-21T00:58:42.203Z,6.49
2023-04-21T00:59:41.691Z,6.50
2023-04-21T01:00:41.731Z,6.50
2023-04-21T01:01:41.740Z,6.51
2023-04-21T01:02:41.848Z,6.51
2023-04-21T01:03:41.839Z,6.50
2023-04-21T01:04:41.625Z,6.50
2023-04-21T01:05:41.630Z,6.50
2023-04-21T01:06:41.801Z,6.50
2023-04-21T01:07:41.605Z,6.51
2023-04-21T01:08:41.946Z,6.51
2023-04-21T01:09:41.787Z,6.50
2023-04-21T01:10:41.551Z,6.50
2023-04-21T01:11:41.552Z,6.49
2023-04-21T01:12:41.524Z,6.49
2023-04-21T01:13:41.544Z,6.48
2023-04-21T01:14:42.152Z,6.48
2023-04-21T01:15:42.124Z,6.48
2023-04-21T01:16:41.521Z,6.48
2023-04-21T01:17:41.503Z,6.47
2023-04-21T01:18:41.469Z,6.47
2023-04-21T01:19:41.467Z,6.46
2023-04-21T01:20:41.490Z,6.46
2023-04-21T01:21:41.447Z,6.45
2023-04-21T01:22:41.416Z,6.45
2023-04-21T01:23:41.425Z,6.44
2023-04-21T01:24:41.551Z,6.44
2023-04-21T01:25:41.405Z,6.45
2023-04-21T01:26:41.367Z,6.45
2023-04-21T01:27:41.381Z,6.46
2023-04-21T01:28:41.359Z,6.47
2023-04-21T01:29:41.621Z,6.48
2023-04-21T01:30:41.620Z,6.49
2023-04-21T01:31:41.367Z,6.50
2023-04-21T01:32:41.308Z,6.51
2023-04-21T01:33:41.549Z,6.51
2023-04-21T01:34:41.273Z,6.51
2023-04-21T01:35:41.268Z,6.51
2023-04-21T01:36:41.239Z,6.51
2023-04-21T01:37:41.714Z,6.51
2023-04-21T01:38:41.257Z,6.51
2023-04-21T01:39:41.255Z,6.52
2023-04-21T01:40:41.763Z,6.52
2023-04-21T01:41:41.243Z,6.52
2023-04-21T01:42:41.549Z,6.52
2023-04-21T01:43:41.807Z,6.52
2023-04-21T01:44:41.813Z,6.51
2023-04-21T01:45:41.280Z,6.51
2023-04-21T01:46:41.156Z,6.51
2023-04-21T01:47:41.189Z,6.50
2023-04-21T01:48:41.185Z,6.49
2023-04-21T01:49:41.217Z,6.48
2023-04-21T01:50:41.095Z,6.46
2023-04-21T01:51:41.320Z,6.46
2023-04-21T01:52:41.055Z,6.45
2023-04-21T01:53:41.363Z,6.45
2023-04-21T01:54:41.248Z,6.45
2023-04-21T01:55:41.040Z,6.45
2023-04-21T01:56:41.292Z,6.44
2023-04-21T01:57:41.036Z,6.44
2023-04-21T01:58:41.010Z,6.44
2023-04-21T01:59:41.004Z,6.44
2023-04-21T02:00:40.969Z,6.44
2023-04-21T02:01:41.140Z,6.45
2023-04-21T02:02:41.348Z,6.45
2023-04-21T02:03:41.119Z,6.46
2023-04-21T02:04:41.108Z,6.47
2023-04-21T02:05:40.924Z,6.48
2023-04-21T02:06:40.894Z,6.48
2023-04-21T02:07:40.998Z,6.49
2023-04-21T02:08:40.883Z,6.50
2023-04-21T02:09:41.866Z,6.50
2023-04-21T02:10:40.979Z,6.50
2023-04-21T02:11:40.852Z,6.51
2023-04-21T02:12:41.756Z,6.51
2023-04-21T02:13:41.273Z,6.52
2023-04-21T02:14:40.795Z,6.52
2023-04-21T02:15:40.827Z,6.52
2023-04-21T02:16:41.351Z,6.53
2023-04-21T02:17:41.370Z,6.53
2023-04-21T02:18:40.781Z,6.54
2023-04-21T02:19:41.583Z,6.55
2023-04-21T02:20:41.504Z,6.55
2023-04-21T02:21:40.732Z,6.56
2023-04-21T02:22:40.708Z,6.56
2023-04-21T02:23:40.714Z,6.57
2023-04-21T02:24:40.691Z,6.57
2023-04-21T02:25:41.041Z,6.58
2023-04-21T02:26:40.671Z,6.58
2023-04-21T02:27:40.663Z,6.58
2023-04-21T02:28:41.282Z,6.57
2023-04-21T02:29:40.639Z,6.57
2023-04-21T02:30:42.531Z,6.56
2023-04-21T02:31:54.302Z,6.55
2023-04-21T02:32:41.699Z,6.54
2023-04-21T02:33:40.627Z,6.53
2023-04-21T02:34:40.639Z,6.52
2023-04-21T02:35:40.571Z,6.51
2023-04-21T02:36:40.713Z,6.50
2023-04-21T02:37:40.710Z,6.50
2023-04-21T02:38:40.538Z,6.50
2023-04-21T02:39:40.511Z,6.51
2023-04-21T02:40:40.523Z,6.51
2023-04-21T02:41:40.526Z,6.52
2023-04-21T02:42:40.544Z,6.53
2023-04-21T02:43:40.560Z,6.53
2023-04-21T02:44:40.554Z,6.53
2023-04-21T02:45:40.460Z,6.52
2023-04-21T02:46:40.480Z,6.51
2023-04-21T02:47:40.434Z,6.51
2023-04-21T02:48:40.407Z,6.51
2023-04-21T02:49:40.627Z,6.51
2023-04-21T02:50:40.549Z,6.51
2023-04-21T02:51:40.374Z,6.51
2023-04-21T02:52:40.669Z,6.51
2023-04-21T02:53:40.367Z,6.50
2023-04-21T02:54:40.326Z,6.50
2023-04-21T02:55:40.329Z,6.50
2023-04-21T02:56:40.300Z,6.50
2023-04-21T02:57:40.313Z,6.50
2023-04-21T02:58:40.305Z,6.51
2023-04-21T02:59:40.287Z,6.51
2023-04-21T03:00:40.341Z,6.51
2023-04-21T03:01:40.255Z,6.51
2023-04-21T03:02:40.490Z,6.51
2023-04-21T03:03:40.329Z,6.51
2023-04-21T03:04:40.305Z,6.51
2023-04-21T03:05:40.313Z,6.51
2023-04-21T03:06:40.192Z,6.51
2023-04-21T03:07:40.305Z,6.51
2023-04-21T03:08:40.312Z,6.51
2023-04-21T03:09:40.155Z,6.51
2023-04-21T03:10:40.135Z,6.51
2023-04-21T03:11:40.341Z,6.51
2023-04-21T03:12:40.114Z,6.51
2023-04-21T03:13:40.171Z,6.51
2023-04-21T03:14:40.306Z,6.51
2023-04-21T03:15:40.091Z,6.51
2023-04-21T03:16:40.328Z,6.52
2023-04-21T03:17:40.136Z,6.52
2023-04-21T03:18:40.048Z,6.52
2023-04-21T03:19:40.060Z,6.52
2023-04-21T03:20:40.060Z,6.52
2023-04-21T03:21:40.110Z,6.52
2023-04-21T03:22:39.993Z,6.51
2023-04-21T03:23:40.153Z,6.51
2023-04-21T03:24:40.185Z,6.50
2023-04-21T03:25:39.974Z,6.49
2023-04-21T03:26:40.239Z,6.48
2023-04-21T03:27:39.951Z,6.47
2023-04-21T03:28:40.300Z,6.46
2023-04-21T03:29:40.193Z,6.45
2023-04-21T03:30:39.894Z,6.44
2023-04-21T03:31:39.930Z,6.42
2023-04-21T03:32:40.353Z,6.41
2023-04-21T03:33:39.883Z,6.39
2023-04-21T03:34:39.858Z,6.37
2023-04-21T03:35:39.960Z,6.35
2023-04-21T03:36:39.822Z,6.33
2023-04-21T03:37:40.327Z,6.32
2023-04-21T03:38:39.910Z,6.31
2023-04-21T03:39:39.831Z,6.29
2023-04-21T03:40:40.337Z,6.28
2023-04-21T03:41:40.134Z,6.25
2023-04-21T03:42:39.764Z,6.23
2023-04-21T03:43:40.346Z,6.20
2023-04-21T03:44:39.977Z,6.18
2023-04-21T03:45:40.334Z,6.16
2023-04-21T03:46:39.715Z,6.14
2023-04-21T03:47:39.733Z,6.13
2023-04-21T03:48:40.299Z,6.12
2023-04-21T03:49:39.691Z,6.11
2023-04-21T03:50:39.680Z,6.09
2023-04-21T03:51:40.363Z,6.08
2023-04-21T03:52:39.641Z,6.07
2023-04-21T03:53:39.993Z,6.05
2023-04-21T03:54:39.612Z,6.04
2023-04-21T03:55:39.628Z,6.03
2023-04-21T03:56:40.007Z,6.01
2023-04-21T03:57:40.355Z,6.00
2023-04-21T03:58:39.574Z,5.98
2023-04-21T03:59:39.585Z,5.95
2023-04-21T04:00:39.561Z,5.94
2023-04-21T04:01:39.601Z,5.92
2023-04-21T04:02:39.737Z,5.90
2023-04-21T04:03:39.718Z,5.89
2023-04-21T04:04:39.796Z,5.87
2023-04-21T04:05:39.538Z,5.86
2023-04-21T04:06:39.493Z,5.84
2023-04-21T04:07:39.490Z,5.83
2023-04-21T04:08:39.453Z,5.82
2023-04-21T04:09:39.655Z,5.81
2023-04-21T04:10:39.441Z,5.80
2023-04-21T04:11:39.712Z,5.79
2023-04-21T04:12:39.739Z,5.78
2023-04-21T04:13:39.414Z,5.77
2023-04-21T04:14:39.390Z,5.76
2023-04-21T04:15:39.800Z,5.75
2023-04-21T04:16:39.387Z,5.74
2023-04-21T04:17:39.772Z,5.73
2023-04-21T04:18:39.905Z,5.72
2023-04-21T04:19:39.339Z,5.72
2023-04-21T04:20:39.372Z,5.72
2023-04-21T04:21:39.440Z,5.72
2023-04-21T04:22:39.297Z,5.73
2023-04-21T04:23:39.298Z,5.73
2023-04-21T04:24:39.920Z,5.73
2023-04-21T04:25:39.926Z,5.73
2023-04-21T04:26:39.269Z,5.74
2023-04-21T04:27:39.962Z,5.73
2023-04-21T04:28:39.370Z,5.74
2023-04-21T04:29:39.233Z,5.74
2023-04-21T04:30:39.370Z,5.74
2023-04-21T04:31:39.260Z,5.75
2023-04-21T04:32:39.346Z,5.75
2023-04-21T04:33:39.384Z,5.76
2023-04-21T04:34:39.165Z,5.76
2023-04-21T04:35:39.141Z,5.76
2023-04-21T04:36:39.155Z,5.74
2023-04-21T04:37:39.117Z,5.73
2023-04-21T04:38:39.108Z,5.71
2023-04-21T04:39:39.095Z,5.71
2023-04-21T04:40:39.090Z,5.71
2023-04-21T04:41:39.226Z,5.71
2023-04-21T04:42:39.082Z,5.72
2023-04-21T04:43:39.041Z,5.72
2023-04-21T04:44:39.389Z,5.73
2023-04-21T04:45:39.381Z,5.74
2023-04-21T04:46:39.048Z,5.74
2023-04-21T04:47:39.023Z,5.75
2023-04-21T04:48:39.388Z,5.76
2023-04-21T04:49:39.391Z,5.76
2023-04-21T04:50:38.977Z,5.77
2023-04-21T04:51:38.951Z,5.78
2023-04-21T04:52:38.990Z,5.79
2023-04-21T04:53:38.946Z,5.79
2023-04-21T04:54:38.930Z,5.80
2023-04-21T04:55:38.903Z,5.80
2023-04-21T04:56:38.908Z,5.81
2023-04-21T04:57:39.109Z,5.81
2023-04-21T04:58:38.892Z,5.82
2023-04-21T04:59:38.857Z,5.82
2023-04-21T05:00:39.225Z,5.83
2023-04-21T05:01:38.922Z,5.83
2023-04-21T05:02:39.104Z,5.84
2023-04-21T05:03:39.033Z,5.85
2023-04-21T05:04:38.871Z,5.85
2023-04-21T05:05:39.257Z,5.86
2023-04-21T05:06:38.802Z,5.86
2023-04-21T05:07:38.770Z,5.87
2023-04-21T05:08:38.780Z,5.88
2023-04-21T05:09:38.752Z,5.88
2023-04-21T05:10:38.750Z,5.89
2023-04-21T05:11:38.727Z,5.89
2023-04-21T05:12:38.745Z,5.90
2023-04-21T05:13:40.145Z,5.90
2023-04-21T05:14:38.729Z,5.91
2023-04-21T05:15:38.676Z,5.91
2023-04-21T05:16:39.464Z,5.92
2023-04-21T05:17:38.690Z,5.92
2023-04-21T05:18:38.681Z,5.92
2023-04-21T05:19:38.650Z,5.93
2023-04-21T05:20:38.632Z,5.93
2023-04-21T05:21:38.689Z,5.93
2023-04-21T05:22:38.619Z,5.93
2023-04-21T05:23:38.589Z,5.93
2023-04-21T05:24:38.748Z,5.93
2023-04-21T05:25:38.647Z,5.94
2023-04-21T05:26:38.607Z,5.94
2023-04-21T05:27:38.577Z,5.94
2023-04-21T05:28:38.585Z,5.94
2023-04-21T05:29:38.803Z,5.94
2023-04-21T05:30:38.529Z,5.94
2023-04-21T05:31:38.874Z,5.95
2023-04-21T05:32:38.972Z,5.95
2023-04-21T05:33:38.470Z,5.96
2023-04-21T05:34:38.480Z,5.97
2023-04-21T05:35:38.446Z,5.98
2023-04-21T05:36:38.449Z,5.98
2023-04-21T05:37:38.415Z,5.99
2023-04-21T05:38:38.423Z,6.00
2023-04-21T05:39:38.402Z,6.00
2023-04-21T05:40:38.396Z,6.01
2023-04-21T05:41:38.365Z,6.02
2023-04-21T05:42:38.377Z,6.04
2023-04-21T05:43:38.352Z,6.05
2023-04-21T05:44:38.364Z,6.06
2023-04-21T05:45:38.344Z,6.07
2023-04-21T05:46:38.406Z,6.09
2023-04-21T05:47:38.385Z,6.10
2023-04-21T05:48:38.295Z,6.11
2023-04-21T05:49:38.293Z,6.13
2023-04-21T05:50:38.280Z,6.14
2023-04-21T05:51:38.248Z,6.16
2023-04-21T05:52:38.270Z,6.19
2023-04-21T05:53:38.230Z,6.21
2023-04-21T05:54:38.249Z,6.23
2023-04-21T05:55:38.210Z,6.26
2023-04-21T05:56:38.240Z,6.28
2023-04-21T05:57:38.177Z,6.31
2023-04-21T05:58:38.205Z,6.34
2023-04-21T05:59:38.165Z,6.37
2023-04-21T06:00:38.155Z,6.39
2023-04-21T06:01:38.133Z,6.42
2023-04-21T06:02:38.352Z,6.45
2023-04-21T06:03:38.327Z,6.47
2023-04-21T06:04:38.263Z,6.49
2023-04-21T06:05:38.107Z,6.51
2023-04-21T06:06:38.091Z,6.54
2023-04-21T06:07:38.062Z,6.56
2023-04-21T06:08:38.074Z,6.59
2023-04-21T06:09:38.058Z,6.60
2023-04-21T06:10:38.036Z,6.61
2023-04-21T06:11:38.014Z,6.61
2023-04-21T06:12:38.016Z,6.62
2023-04-21T06:13:39.140Z,6.64
2023-04-21T06:14:37.999Z,6.65
2023-04-21T06:15:37.974Z,6.66
2023-04-21T06:16:38.612Z,6.68
2023-04-21T06:17:38.476Z,6.69
2023-04-21T06:18:37.973Z,6.71
2023-04-21T06:19:37.932Z,6.72
2023-04-21T06:20:37.938Z,6.73
2023-04-21T06:21:37.906Z,6.74
2023-04-21T06:22:37.890Z,6.76
2023-04-21T06:23:37.872Z,6.78
2023-04-21T06:24:37.873Z,6.80
2023-04-21T06:25:38.188Z,6.82
2023-04-21T06:26:37.854Z,6.85
2023-04-21T06:27:37.836Z,6.88
2023-04-21T06:28:37.828Z,6.90
2023-04-21T06:29:37.807Z,6.94
2023-04-21T06:30:37.825Z,6.99
2023-04-21T06:31:37.796Z,7.06
2023-04-21T06:32:38.486Z,7.12
2023-04-21T06:33:38.477Z,7.17
2023-04-21T06:34:37.773Z,7.21
2023-04-21T06:35:37.741Z,7.25
2023-04-21T06:36:37.755Z,7.27
2023-04-21T06:37:37.705Z,7.29
2023-04-21T06:38:37.709Z,7.31
2023-04-21T06:39:37.689Z,7.36
2023-04-21T06:40:37.705Z,7.42
2023-04-21T06:41:37.793Z,7.48
2023-04-21T06:42:37.683Z,7.57
2023-04-21T06:43:37.637Z,7.73
2023-04-21T06:44:37.640Z,7.96
2023-04-21T06:45:37.624Z,8.21
2023-04-21T06:46:37.683Z,8.43
2023-04-21T06:47:37.654Z,8.58
2023-04-21T06:48:37.606Z,8.68
2023-04-21T06:49:37.588Z,8.77
2023-04-21T06:50:37.593Z,8.90
2023-04-21T06:51:37.556Z,9.06
2023-04-21T06:52:37.552Z,9.23
2023-04-21T06:53:37.597Z,9.41
2023-04-21T06:54:37.550Z,9.56
2023-04-21T06:55:37.494Z,9.63
2023-04-21T06:56:38.018Z,9.66
2023-04-21T06:57:37.503Z,9.67
2023-04-21T06:58:37.476Z,9.67
2023-04-21T06:59:37.448Z,9.64
2023-04-21T07:00:37.458Z,9.62
2023-04-21T07:01:37.533Z,9.61
2023-04-21T07:02:37.538Z,9.63
2023-04-21T07:03:37.514Z,9.66
2023-04-21T07:04:37.460Z,9.67
2023-04-21T07:05:37.409Z,9.65
2023-04-21T07:06:37.426Z,9.62
2023-04-21T07:07:37.381Z,9.60
2023-04-21T07:08:37.385Z,9.57
2023-04-21T07:09:37.328Z,9.54
2023-04-21T07:10:37.347Z,9.52
2023-04-21T07:11:37.349Z,9.55
2023-04-21T07:12:37.380Z,9.60
2023-04-21T07:13:37.295Z,9.63
2023-04-21T07:14:37.343Z,9.65
2023-04-21T07:15:37.289Z,9.66
2023-04-21T07:16:37.317Z,9.64
2023-04-21T07:17:37.345Z,9.60
2023-04-21T07:18:37.272Z,9.57
2023-04-21T07:19:37.242Z,9.55
2023-04-21T07:20:37.239Z,9.55
2023-04-21T07:21:37.230Z,9.55
2023-04-21T07:22:37.234Z,9.55
2023-04-21T07:23:37.191Z,9.54
2023-04-21T07:24:37.183Z,9.51
2023-04-21T07:25:37.171Z,9.49
2023-04-21T07:26:37.167Z,9.45
2023-04-21T07:27:37.146Z,9.42
2023-04-21T07:28:37.155Z,9.39
2023-04-21T07:29:37.116Z,9.37
2023-04-21T07:30:37.142Z,9.37
2023-04-21T07:31:37.181Z,9.36
2023-04-21T07:32:37.130Z,9.36
2023-04-21T07:33:37.083Z,9.37
2023-04-21T07:34:37.081Z,9.39
2023-04-21T07:35:37.063Z,9.41
2023-04-21T07:36:37.040Z,9.42
2023-04-21T07:37:37.023Z,9.42
2023-04-21T07:38:37.047Z,9.41
2023-04-21T07:39:37.001Z,9.41
2023-04-21T07:40:36.994Z,9.42
2023-04-21T07:41:36.990Z,9.44
2023-04-21T07:42:36.976Z,9.46
2023-04-21T07:43:36.941Z,9.47
2023-04-21T07:44:36.960Z,9.49
2023-04-21T07:45:36.905Z,9.52
2023-04-21T07:46:37.025Z,9.55
2023-04-21T07:47:36.930Z,9.56
2023-04-21T07:48:36.891Z,9.58
2023-04-21T07:49:36.922Z,9.60
2023-04-21T07:50:36.865Z,9.61
2023-04-21T07:51:36.834Z,9.65
2023-04-21T07:52:36.858Z,9.71
2023-04-21T07:53:36.823Z,9.78
2023-04-21T07:54:36.837Z,9.84
2023-04-21T07:55:36.820Z,9.89
2023-04-21T07:56:36.804Z,9.92
2023-04-21T07:57:36.781Z,9.95
2023-04-21T07:58:36.794Z,9.96
2023-04-21T07:59:36.756Z,9.97
2023-04-21T08:00:36.763Z,9.98
2023-04-21T08:01:36.724Z,9.99
2023-04-21T08:02:36.796Z,10.00
2023-04-21T08:03:36.862Z,10.02
2023-04-21T08:04:36.978Z,10.05
2023-04-21T08:05:40.172Z,10.07
2023-04-21T08:06:36.828Z,10.07
2023-04-21T08:07:36.659Z,10.08
2023-04-21T08:08:36.656Z,10.11
2023-04-21T11:58:48.070Z,16.06
2023-04-21T11:59:48.004Z,15.60
2023-04-21T12:00:48.101Z,15.26
2023-04-21T12:01:48.104Z,15.04
2023-04-21T12:02:48.084Z,14.90
2023-04-21T12:03:48.407Z,14.83
2023-04-21T12:04:48.295Z,14.78
2023-04-21T12:05:48.197Z,14.76
2023-04-21T12:06:48.182Z,14.76
2023-04-21T12:07:48.199Z,14.77
2023-04-21T12:08:48.204Z,14.78
2023-04-21T12:09:48.071Z,14.80
2023-04-21T12:10:48.254Z,14.82
2023-04-21T12:11:49.599Z,14.85
2023-04-21T12:12:48.255Z,14.87
2023-04-21T12:13:48.267Z,14.90
2023-04-21T12:14:48.259Z,14.94
2023-04-21T12:15:48.320Z,14.98
2023-04-21T12:16:47.972Z,15.00
2023-04-21T12:17:48.348Z,15.01
2023-04-21T12:18:48.317Z,15.01
2023-04-21T12:19:48.340Z,15.01
2023-04-21T12:20:47.745Z,15.02
2023-04-21T12:21:47.761Z,15.02
2023-04-21T12:22:47.764Z,15.03
2023-04-21T12:23:47.751Z,15.05
2023-04-21T12:24:47.732Z,15.06
2023-04-21T12:25:47.758Z,15.08
2023-04-21T12:26:47.682Z,15.10
2023-04-21T12:27:47.739Z,15.11
2023-04-21T12:28:47.702Z,15.13
2023-04-21T12:29:47.737Z,15.14
2023-04-21T12:30:47.764Z,15.16
2023-04-21T12:31:47.865Z,15.16
2023-04-21T12:32:47.830Z,15.17
2023-04-21T12:33:47.717Z,15.18
2023-04-21T12:34:47.753Z,15.19
2023-04-21T12:35:47.602Z,15.21
2023-04-21T12:36:47.603Z,15.22
2023-04-21T12:37:47.633Z,15.23
2023-04-21T12:38:47.665Z,15.25
2023-04-21T12:39:47.564Z,15.26
2023-04-21T12:40:47.519Z,15.27
2023-04-21T12:41:47.529Z,15.28
2023-04-21T12:42:47.477Z,15.28
2023-04-21T12:43:47.541Z,15.29
2023-04-21T12:44:47.467Z,15.30
2023-04-21T12:45:47.837Z,15.31
2023-04-21T12:46:47.450Z,15.31
2023-04-21T12:47:47.488Z,15.32
2023-04-21T12:48:47.467Z,15.34
2023-04-21T12:49:47.513Z,15.37
2023-04-21T12:50:47.399Z,15.42
2023-04-21T12:51:47.432Z,15.47
2023-04-21T12:52:47.405Z,15.51
2023-04-21T12:53:47.399Z,15.55
2023-04-21T12:54:47.350Z,15.59
2023-04-21T12:55:57.279Z,15.63
2023-04-21T12:56:48.413Z,15.67
2023-04-21T12:57:47.324Z,15.71
2023-04-21T12:58:47.311Z,15.76
2023-04-21T12:59:47.308Z,15.82
2023-04-21T13:00:47.300Z,15.88
2023-04-21T13:01:47.352Z,15.96
2023-04-21T13:02:47.350Z,16.03
2023-04-21T13:03:47.430Z,16.09
2023-04-21T13:04:47.340Z,16.12
2023-04-21T13:05:47.251Z,16.13
2023-04-21T13:06:47.204Z,16.13
2023-04-21T13:07:47.211Z,16.12
2023-04-21T13:08:47.270Z,16.10
2023-04-21T13:09:47.185Z,16.07
2023-04-21T13:10:47.196Z,16.04
2023-04-21T13:11:47.516Z,16.02
2023-04-21T13:12:47.509Z,16.00
2023-04-21T13:13:47.518Z,15.97
2023-04-21T13:14:47.125Z,15.95
2023-04-21T13:15:47.124Z,15.94
2023-04-21T13:16:47.183Z,15.95
2023-04-21T13:17:47.098Z,15.96
2023-04-21T13:18:47.067Z,15.98
2023-04-21T13:19:47.135Z,16.00
2023-04-21T13:20:47.045Z,16.00
2023-04-21T13:21:47.049Z,16.00
2023-04-21T13:22:47.030Z,15.99
2023-04-21T13:23:47.015Z,15.98
2023-04-21T13:24:46.991Z,15.97
2023-04-21T13:25:47.009Z,15.97
2023-04-21T13:26:46.989Z,15.97
2023-04-21T13:27:47.018Z,15.96
2023-04-21T13:28:46.948Z,15.97
2023-04-21T13:29:46.941Z,15.97
2023-04-21T13:30:46.937Z,15.98
2023-04-21T13:31:46.935Z,15.98
2023-04-21T13:32:46.991Z,15.98
2023-04-21T13:33:46.899Z,15.99
2023-04-21T13:34:46.912Z,16.00
2023-04-21T13:35:46.883Z,16.02
2023-04-21T13:36:46.903Z,16.04
2023-04-21T13:37:47.365Z,16.08
2023-04-21T13:38:46.847Z,16.11
2023-04-21T13:39:46.848Z,16.13
2023-04-21T13:40:46.811Z,16.13
2023-04-21T13:41:46.810Z,16.12
2023-04-21T13:42:46.834Z,16.12
2023-04-21T13:43:46.795Z,16.12
2023-04-21T13:44:46.818Z,16.13
2023-04-21T13:45:46.755Z,16.13
2023-04-21T13:46:46.821Z,16.12
2023-04-21T13:47:46.803Z,16.11
2023-04-21T13:48:46.794Z,16.10
2023-04-21T13:49:46.722Z,16.10
2023-04-21T13:50:46.714Z,16.10
2023-04-21T13:51:46.699Z,16.11
2023-04-21T13:52:46.689Z,16.12
2023-04-21T13:53:46.696Z,16.14
2023-04-21T13:54:46.632Z,16.15
2023-04-21T13:55:46.648Z,16.16
2023-04-21T13:56:46.607Z,16.18
2023-04-21T13:57:46.647Z,16.19
2023-04-21T13:58:46.603Z,16.21
2023-04-21T13:59:47.578Z,16.23
2023-04-21T14:00:46.561Z,16.26
2023-04-21T14:01:46.660Z,16.29
2023-04-21T14:02:46.814Z,16.32
2023-04-21T14:03:46.700Z,16.34
2023-04-21T14:04:46.879Z,16.36
2023-04-21T14:05:46.840Z,16.40
2023-04-21T14:06:46.529Z,16.45
2023-04-21T14:07:46.531Z,16.50
2023-04-21T14:08:46.490Z,16.53
2023-04-21T14:09:46.480Z,16.55
2023-04-21T14:10:46.459Z,16.55
2023-04-21T14:11:46.471Z,16.54
2023-04-21T14:12:46.448Z,16.53
2023-04-21T14:14:00.880Z,16.52
2023-04-21T14:14:47.402Z,16.52
2023-04-21T14:15:46.795Z,16.52
2023-04-21T14:16:46.467Z,16.52
2023-04-21T14:17:46.429Z,16.53
2023-04-21T14:18:46.413Z,16.54
2023-04-21T14:19:46.369Z,16.55
2023-04-21T14:20:46.352Z,16.55
2023-04-21T14:21:46.335Z,16.55
2023-04-21T14:22:46.345Z,16.55
2023-04-21T14:23:46.345Z,16.56
2023-04-21T14:24:46.293Z,16.57
2023-04-21T14:25:46.282Z,16.57
2023-04-21T14:26:46.276Z,16.58
2023-04-21T14:27:46.292Z,16.59
2023-04-21T14:28:46.249Z,16.61
2023-04-21T14:29:46.841Z,16.61
2023-04-21T14:30:46.212Z,16.61
2023-04-21T14:31:46.263Z,16.62
2023-04-21T14:32:46.237Z,16.61
2023-04-21T14:33:46.250Z,16.59
2023-04-21T14:34:46.199Z,16.54
2023-04-21T14:35:46.159Z,16.50
2023-04-21T14:36:46.155Z,16.45
2023-04-21T14:37:46.119Z,16.42
2023-04-21T14:38:46.197Z,16.40
2023-04-21T14:39:46.097Z,16.38
2023-04-21T14:40:46.127Z,16.38
2023-04-21T14:41:46.125Z,16.39
2023-04-21T14:42:46.076Z,16.39
2023-04-21T14:43:47.589Z,16.39
2023-04-21T14:44:46.077Z,16.38
2023-04-21T14:45:46.061Z,16.37
2023-04-21T14:46:56.855Z,16.37
2023-04-21T14:47:47.054Z,16.37
2023-04-21T14:48:46.029Z,16.38
2023-04-21T14:49:46.006Z,16.41
2023-04-21T14:50:46.014Z,16.45
2023-04-21T14:51:45.969Z,16.50
2023-04-21T14:52:45.972Z,16.54
2023-04-21T14:53:45.983Z,16.58
2023-04-21T14:54:45.962Z,16.61
2023-04-21T14:55:45.912Z,16.63
2023-04-21T14:56:45.949Z,16.62
2023-04-21T14:57:45.882Z,16.59
2023-04-21T14:58:45.891Z,16.56
2023-04-21T14:59:45.925Z,16.54
2023-04-21T15:00:45.926Z,16.52
2023-04-21T15:01:45.903Z,16.50
2023-04-21T15:02:45.925Z,16.49
2023-04-21T15:03:46.134Z,16.47
2023-04-21T15:04:45.877Z,16.45
2023-04-21T15:05:45.850Z,16.43
2023-04-21T15:06:45.804Z,16.42
2023-04-21T15:07:45.780Z,16.40
2023-04-21T15:08:45.864Z,16.39
2023-04-21T15:09:45.831Z,16.38
2023-04-21T15:10:45.765Z,16.37
2023-04-21T15:11:45.732Z,16.37
2023-04-21T15:12:45.758Z,16.38
2023-04-21T15:13:45.710Z,16.40
2023-04-21T15:14:45.728Z,16.42
2023-04-21T15:15:45.737Z,16.45
2023-04-21T15:16:45.782Z,16.49
2023-04-21T15:17:45.899Z,16.52
2023-04-21T15:18:45.665Z,16.55
2023-04-21T15:19:45.639Z,16.58
2023-04-21T15:20:46.030Z,16.60
2023-04-21T15:21:45.610Z,16.61
2023-04-21T15:22:45.659Z,16.62
2023-04-21T15:23:45.587Z,16.63
2023-04-21T15:24:45.622Z,16.63
2023-04-21T15:25:45.579Z,16.63
2023-04-21T15:26:45.580Z,16.63
2023-04-21T15:27:45.538Z,16.63
2023-04-21T15:28:45.548Z,16.62
2023-04-21T15:29:45.524Z,16.62
2023-04-21T15:30:45.540Z,16.63
2023-04-21T15:31:45.585Z,16.64
2023-04-21T15:32:45.579Z,16.66
2023-04-21T15:33:45.473Z,16.68
2023-04-21T15:34:45.529Z,16.70
2023-04-21T15:35:45.882Z,16.72
2023-04-21T15:36:45.639Z,16.76
2023-04-21T15:37:45.884Z,16.80
2023-04-21T15:38:45.508Z,16.85
2023-04-21T15:39:45.499Z,16.89
2023-04-21T15:40:59.580Z,16.92
2023-04-21T15:41:46.435Z,16.93
2023-04-21T15:42:45.442Z,16.94
2023-04-21T15:43:45.425Z,16.94
2023-04-21T15:44:45.406Z,16.93
2023-04-21T15:45:45.366Z,16.92
2023-04-21T15:46:45.608Z,16.91
2023-04-21T15:47:45.814Z,16.90
2023-04-21T15:48:45.343Z,16.88
2023-04-21T15:49:45.299Z,16.87
2023-04-21T15:50:45.363Z,16.86
2023-04-21T15:51:45.726Z,16.85
2023-04-21T15:52:45.285Z,16.84
2023-04-21T15:53:45.234Z,16.84
2023-04-21T15:54:45.303Z,16.84
2023-04-21T15:55:45.225Z,16.84
2023-04-21T15:56:45.307Z,16.84
2023-04-21T15:57:45.211Z,16.85
2023-04-21T15:58:45.203Z,16.85
2023-04-21T15:59:45.375Z,16.87
2023-04-21T16:00:45.204Z,16.88
2023-04-21T16:01:45.275Z,16.89
2023-04-21T16:02:45.325Z,16.89
2023-04-21T16:03:45.204Z,16.88
2023-04-21T16:04:45.432Z,16.87
2023-04-21T16:05:45.219Z,16.86
2023-04-21T16:06:45.183Z,16.84
2023-04-21T16:07:45.443Z,16.83
2023-04-21T16:08:45.109Z,16.82
2023-04-21T16:09:45.048Z,16.81
2023-04-21T16:10:45.054Z,16.80
2023-04-21T16:11:45.105Z,16.78
2023-04-21T16:12:45.069Z,16.77
2023-04-21T16:13:45.031Z,16.76
2023-04-21T16:14:55.980Z,16.74
2023-04-21T16:15:46.100Z,16.73
2023-04-21T16:16:45.656Z,16.71
2023-04-21T16:17:45.040Z,16.70
2023-04-21T16:18:45.074Z,16.69
2023-04-21T16:19:44.937Z,16.68
2023-04-21T16:20:44.976Z,16.66
2023-04-21T16:21:44.920Z,16.64
2023-04-21T16:22:44.961Z,16.62
2023-04-21T16:23:44.933Z,16.60
2023-04-21T16:24:45.035Z,16.58
2023-04-21T16:25:45.102Z,16.57
2023-04-21T16:26:44.932Z,16.57
2023-04-21T16:27:44.913Z,16.57
2023-04-21T16:28:44.866Z,16.57
2023-04-21T16:29:44.819Z,16.57
2023-04-21T16:30:44.857Z,16.57
2023-04-21T16:31:44.972Z,16.56
2023-04-21T16:32:45.012Z,16.56
2023-04-21T16:33:44.966Z,16.54
2023-04-21T16:34:45.082Z,16.53
2023-04-21T16:35:44.854Z,16.53
2023-04-21T16:36:44.779Z,16.53
2023-04-21T16:37:44.748Z,16.53
2023-04-21T16:38:46.185Z,16.54
2023-04-21T16:39:44.700Z,16.54
2023-04-21T16:40:44.741Z,16.56
2023-04-21T16:41:44.934Z,16.57
2023-04-21T16:42:44.687Z,16.59
2023-04-21T16:43:44.648Z,16.61
2023-04-21T16:44:44.729Z,16.64
2023-04-21T16:45:44.694Z,16.65
2023-04-21T16:46:44.731Z,16.67
2023-04-21T16:47:44.772Z,16.68
2023-04-21T16:48:45.143Z,16.68
2023-04-21T16:49:44.954Z,16.68
2023-04-21T16:50:44.582Z,16.67
2023-04-21T16:51:44.712Z,16.67
2023-04-21T16:52:44.605Z,16.66
2023-04-21T16:53:44.539Z,16.66
2023-04-21T16:54:44.535Z,16.66
2023-04-21T16:55:44.944Z,16.66
2023-04-21T16:56:44.953Z,16.64
2023-04-21T16:57:44.493Z,16.62